Terminal Aerodrome Forecast
Issued by NWS Duluth, MN

Home | Current Version | Previous Version | Text Only | Print | Product List | Glossary On
Versions: 1 2 3 4 5 6 7 8 9 10 11 12 13 14 15 16 17 18 19 20
822
FTUS43 KDLH 221722
TAFDLH
TAF
KDLH 221722Z 2218/2318 19014G22KT P6SM SKC
     FM222200 20014G24KT P6SM SCT080
     FM230100 19009KT P6SM SKC
     FM230400 20009KT P6SM SKC WS020/21050KT
     FM231000 19008KT P6SM SKC=

USA.gov is the U.S. government's official web portal to all federal, state and local government web resources and services.